sensor_id;sensor_type;location;lat;lon;timestamp;P1;durP1;ratioP1;P2;durP2;ratioP2
25153;SDS011;47555;51.038;6.280;2023-08-24T00:01:47;4.22;;;2.78;;
25153;SDS011;47555;51.038;6.280;2023-08-24T00:04:13;4.97;;;3.20;;
25153;SDS011;47555;51.038;6.280;2023-08-24T00:06:39;4.32;;;2.90;;
25153;SDS011;47555;51.038;6.280;2023-08-24T00:09:05;4.85;;;2.72;;
25153;SDS011;47555;51.038;6.280;2023-08-24T00:11:31;4.03;;;2.75;;
25153;SDS011;47555;51.038;6.280;2023-08-24T00:13:57;3.47;;;2.63;;
25153;SDS011;47555;51.038;6.280;2023-08-24T00:16:23;5.40;;;3.20;;
25153;SDS011;47555;51.038;6.280;2023-08-24T00:18:49;5.28;;;3.13;;
25153;SDS011;47555;51.038;6.280;2023-08-24T00:21:15;5.00;;;3.13;;
25153;SDS011;47555;51.038;6.280;2023-08-24T00:23:47;5.13;;;3.25;;
25153;SDS011;47555;51.038;6.280;2023-08-24T00:26:13;6.05;;;3.08;;
25153;SDS011;47555;51.038;6.280;2023-08-24T00:28:42;9.40;;;3.53;;
25153;SDS011;47555;51.038;6.280;2023-08-24T00:31:07;6.80;;;3.75;;
25153;SDS011;47555;51.038;6.280;2023-08-24T00:33:33;7.70;;;3.63;;
25153;SDS011;47555;51.038;6.280;2023-08-24T00:36:02;4.95;;;3.47;;
25153;SDS011;47555;51.038;6.280;2023-08-24T00:38:29;6.15;;;3.10;;
25153;SDS011;47555;51.038;6.280;2023-08-24T00:40:55;7.93;;;3.58;;
25153;SDS011;47555;51.038;6.280;2023-08-24T00:43:22;5.65;;;3.92;;
25153;SDS011;47555;51.038;6.280;2023-08-24T00:45:49;5.20;;;3.40;;
25153;SDS011;47555;51.038;6.280;2023-08-24T00:48:16;4.57;;;3.08;;
25153;SDS011;47555;51.038;6.280;2023-08-24T00:50:42;6.55;;;3.30;;
25153;SDS011;47555;51.038;6.280;2023-08-24T00:53:08;4.57;;;2.90;;
25153;SDS011;47555;51.038;6.280;2023-08-24T00:55:34;4.55;;;3.05;;
25153;SDS011;47555;51.038;6.280;2023-08-24T00:58:00;4.05;;;3.08;;
25153;SDS011;47555;51.038;6.280;2023-08-24T01:00:26;3.50;;;2.90;;
25153;SDS011;47555;51.038;6.280;2023-08-24T01:02:52;6.10;;;3.08;;
25153;SDS011;47555;51.038;6.280;2023-08-24T01:05:18;4.28;;;2.70;;
25153;SDS011;47555;51.038;6.280;2023-08-24T01:07:44;4.45;;;2.80;;
25153;SDS011;47555;51.038;6.280;2023-08-24T01:10:10;5.30;;;3.17;;
25153;SDS011;47555;51.038;6.280;2023-08-24T01:15:17;4.57;;;3.10;;
25153;SDS011;47555;51.038;6.280;2023-08-24T01:17:44;4.10;;;3.03;;
25153;SDS011;47555;51.038;6.280;2023-08-24T01:20:12;6.47;;;3.17;;
25153;SDS011;47555;51.038;6.280;2023-08-24T01:25:13;5.10;;;3.80;;
25153;SDS011;47555;51.038;6.280;2023-08-24T01:27:41;5.63;;;3.70;;
25153;SDS011;47555;51.038;6.280;2023-08-24T01:30:08;7.85;;;3.92;;
25153;SDS011;47555;51.038;6.280;2023-08-24T01:32:34;6.72;;;4.78;;
25153;SDS011;47555;51.038;6.280;2023-08-24T01:35:01;7.43;;;4.00;;
25153;SDS011;47555;51.038;6.280;2023-08-24T01:37:27;7.75;;;3.95;;
25153;SDS011;47555;51.038;6.280;2023-08-24T01:39:56;5.30;;;4.00;;
25153;SDS011;47555;51.038;6.280;2023-08-24T01:42:25;5.45;;;3.50;;
25153;SDS011;47555;51.038;6.280;2023-08-24T01:44:54;5.30;;;4.15;;
25153;SDS011;47555;51.038;6.280;2023-08-24T01:47:23;5.13;;;3.73;;
25153;SDS011;47555;51.038;6.280;2023-08-24T01:49:50;8.02;;;4.20;;
25153;SDS011;47555;51.038;6.280;2023-08-24T01:52:16;7.18;;;3.92;;
25153;SDS011;47555;51.038;6.280;2023-08-24T01:54:43;6.28;;;3.53;;
25153;SDS011;47555;51.038;6.280;2023-08-24T01:57:09;4.90;;;3.58;;
25153;SDS011;47555;51.038;6.280;2023-08-24T01:59:36;7.63;;;4.35;;
25153;SDS011;47555;51.038;6.280;2023-08-24T02:02:02;7.68;;;4.07;;
25153;SDS011;47555;51.038;6.280;2023-08-24T02:04:28;7.90;;;4.15;;
25153;SDS011;47555;51.038;6.280;2023-08-24T02:06:54;5.05;;;4.35;;
25153;SDS011;47555;51.038;6.280;2023-08-24T02:09:19;4.50;;;3.83;;
25153;SDS011;47555;51.038;6.280;2023-08-24T02:11:45;6.93;;;3.92;;
25153;SDS011;47555;51.038;6.280;2023-08-24T02:14:11;5.03;;;4.03;;
25153;SDS011;47555;51.038;6.280;2023-08-24T02:16:37;6.15;;;4.07;;
25153;SDS011;47555;51.038;6.280;2023-08-24T02:19:04;6.85;;;4.30;;
25153;SDS011;47555;51.038;6.280;2023-08-24T02:21:30;6.63;;;4.10;;
25153;SDS011;47555;51.038;6.280;2023-08-24T02:23:56;6.70;;;4.18;;
25153;SDS011;47555;51.038;6.280;2023-08-24T02:26:22;5.97;;;4.35;;
25153;SDS011;47555;51.038;6.280;2023-08-24T02:28:48;7.15;;;4.00;;
25153;SDS011;47555;51.038;6.280;2023-08-24T02:31:14;9.80;;;4.88;;
25153;SDS011;47555;51.038;6.280;2023-08-24T02:33:41;7.07;;;4.28;;
25153;SDS011;47555;51.038;6.280;2023-08-24T02:36:07;8.07;;;4.25;;
25153;SDS011;47555;51.038;6.280;2023-08-24T02:38:33;5.03;;;4.30;;
25153;SDS011;47555;51.038;6.280;2023-08-24T02:41:03;6.25;;;4.05;;
25153;SDS011;47555;51.038;6.280;2023-08-24T02:43:29;11.38;;;4.50;;
25153;SDS011;47555;51.038;6.280;2023-08-24T02:45:58;10.77;;;4.65;;
25153;SDS011;47555;51.038;6.280;2023-08-24T02:48:25;9.82;;;4.82;;
25153;SDS011;47555;51.038;6.280;2023-08-24T02:50:51;6.75;;;4.13;;
25153;SDS011;47555;51.038;6.280;2023-08-24T02:53:17;7.88;;;4.22;;
25153;SDS011;47555;51.038;6.280;2023-08-24T02:55:43;6.90;;;4.32;;
25153;SDS011;47555;51.038;6.280;2023-08-24T02:58:09;6.90;;;4.22;;
25153;SDS011;47555;51.038;6.280;2023-08-24T03:00:37;9.80;;;5.13;;
25153;SDS011;47555;51.038;6.280;2023-08-24T03:03:03;9.23;;;4.43;;
25153;SDS011;47555;51.038;6.280;2023-08-24T03:05:31;8.60;;;4.88;;
25153;SDS011;47555;51.038;6.280;2023-08-24T03:07:57;10.07;;;4.20;;
25153;SDS011;47555;51.038;6.280;2023-08-24T03:10:23;7.07;;;4.22;;
25153;SDS011;47555;51.038;6.280;2023-08-24T03:12:49;6.72;;;4.05;;
25153;SDS011;47555;51.038;6.280;2023-08-24T03:15:15;10.50;;;4.40;;
25153;SDS011;47555;51.038;6.280;2023-08-24T03:17:41;11.20;;;5.15;;
25153;SDS011;47555;51.038;6.280;2023-08-24T03:20:07;13.25;;;5.30;;
25153;SDS011;47555;51.038;6.280;2023-08-24T03:22:33;8.32;;;4.57;;
25153;SDS011;47555;51.038;6.280;2023-08-24T03:24:59;6.82;;;4.85;;
25153;SDS011;47555;51.038;6.280;2023-08-24T03:27:25;8.35;;;4.82;;
25153;SDS011;47555;51.038;6.280;2023-08-24T03:29:51;9.85;;;5.57;;
25153;SDS011;47555;51.038;6.280;2023-08-24T03:32:17;10.48;;;5.30;;
25153;SDS011;47555;51.038;6.280;2023-08-24T03:34:43;8.02;;;5.00;;
25153;SDS011;47555;51.038;6.280;2023-08-24T03:37:09;7.78;;;5.40;;
25153;SDS011;47555;51.038;6.280;2023-08-24T03:39:39;8.65;;;5.35;;
25153;SDS011;47555;51.038;6.280;2023-08-24T03:42:05;8.23;;;5.47;;
25153;SDS011;47555;51.038;6.280;2023-08-24T03:44:31;9.38;;;5.45;;
25153;SDS011;47555;51.038;6.280;2023-08-24T03:46:57;14.40;;;6.05;;
25153;SDS011;47555;51.038;6.280;2023-08-24T03:49:23;10.30;;;5.75;;
25153;SDS011;47555;51.038;6.280;2023-08-24T03:51:49;10.00;;;5.40;;
25153;SDS011;47555;51.038;6.280;2023-08-24T03:54:15;10.82;;;5.30;;
25153;SDS011;47555;51.038;6.280;2023-08-24T03:56:42;13.10;;;6.05;;
25153;SDS011;47555;51.038;6.280;2023-08-24T03:59:08;12.80;;;5.90;;
25153;SDS011;47555;51.038;6.280;2023-08-24T04:01:34;18.30;;;6.18;;
25153;SDS011;47555;51.038;6.280;2023-08-24T04:04:00;9.25;;;5.53;;
25153;SDS011;47555;51.038;6.280;2023-08-24T04:06:26;11.38;;;5.78;;
25153;SDS011;47555;51.038;6.280;2023-08-24T04:08:52;12.73;;;6.28;;
25153;SDS011;47555;51.038;6.280;2023-08-24T04:11:18;17.92;;;5.82;;
25153;SDS011;47555;51.038;6.280;2023-08-24T04:13:44;15.65;;;5.97;;
25153;SDS011;47555;51.038;6.280;2023-08-24T04:16:10;11.85;;;5.90;;
25153;SDS011;47555;51.038;6.280;2023-08-24T04:18:36;14.30;;;5.70;;
25153;SDS011;47555;51.038;6.280;2023-08-24T04:21:02;12.40;;;5.72;;
25153;SDS011;47555;51.038;6.280;2023-08-24T04:23:30;17.90;;;6.28;;
25153;SDS011;47555;51.038;6.280;2023-08-24T04:25:56;14.88;;;6.00;;
25153;SDS011;47555;51.038;6.280;2023-08-24T04:28:22;14.25;;;6.97;;
25153;SDS011;47555;51.038;6.280;2023-08-24T04:30:52;17.35;;;7.63;;
25153;SDS011;47555;51.038;6.280;2023-08-24T04:33:18;13.57;;;6.25;;
25153;SDS011;47555;51.038;6.280;2023-08-24T04:35:47;9.85;;;5.90;;
25153;SDS011;47555;51.038;6.280;2023-08-24T04:38:14;11.02;;;6.18;;
25153;SDS011;47555;51.038;6.280;2023-08-24T04:40:47;9.52;;;6.82;;
25153;SDS011;47555;51.038;6.280;2023-08-24T04:43:13;9.88;;;6.68;;
25153;SDS011;47555;51.038;6.280;2023-08-24T04:45:39;10.95;;;6.05;;
25153;SDS011;47555;51.038;6.280;2023-08-24T04:48:05;11.52;;;7.18;;
25153;SDS011;47555;51.038;6.280;2023-08-24T04:50:31;10.57;;;7.22;;
25153;SDS011;47555;51.038;6.280;2023-08-24T04:52:57;11.82;;;6.85;;
25153;SDS011;47555;51.038;6.280;2023-08-24T04:55:26;8.43;;;6.82;;
25153;SDS011;47555;51.038;6.280;2023-08-24T04:57:51;10.15;;;7.05;;
25153;SDS011;47555;51.038;6.280;2023-08-24T05:00:18;13.13;;;7.63;;
25153;SDS011;47555;51.038;6.280;2023-08-24T05:02:44;13.18;;;6.88;;
25153;SDS011;47555;51.038;6.280;2023-08-24T05:05:10;10.73;;;6.93;;
25153;SDS011;47555;51.038;6.280;2023-08-24T05:07:39;11.38;;;6.68;;
25153;SDS011;47555;51.038;6.280;2023-08-24T05:10:06;12.02;;;7.10;;
25153;SDS011;47555;51.038;6.280;2023-08-24T05:12:35;8.98;;;5.90;;
25153;SDS011;47555;51.038;6.280;2023-08-24T05:15:01;8.23;;;6.65;;
25153;SDS011;47555;51.038;6.280;2023-08-24T05:17:27;12.90;;;6.55;;
25153;SDS011;47555;51.038;6.280;2023-08-24T05:19:54;13.25;;;6.50;;
25153;SDS011;47555;51.038;6.280;2023-08-24T05:22:20;10.50;;;6.32;;
25153;SDS011;47555;51.038;6.280;2023-08-24T05:24:46;8.98;;;6.40;;
25153;SDS011;47555;51.038;6.280;2023-08-24T05:27:12;9.48;;;6.13;;
25153;SDS011;47555;51.038;6.280;2023-08-24T05:29:38;14.13;;;7.07;;
25153;SDS011;47555;51.038;6.280;2023-08-24T05:32:04;11.48;;;7.03;;
25153;SDS011;47555;51.038;6.280;2023-08-24T05:34:30;11.23;;;6.60;;
25153;SDS011;47555;51.038;6.280;2023-08-24T05:36:56;10.52;;;7.05;;
25153;SDS011;47555;51.038;6.280;2023-08-24T05:39:22;12.45;;;6.70;;
25153;SDS011;47555;51.038;6.280;2023-08-24T05:41:54;9.43;;;6.47;;
25153;SDS011;47555;51.038;6.280;2023-08-24T05:44:20;11.50;;;6.63;;
25153;SDS011;47555;51.038;6.280;2023-08-24T05:46:47;9.50;;;6.75;;
25153;SDS011;47555;51.038;6.280;2023-08-24T05:49:13;11.68;;;7.10;;
25153;SDS011;47555;51.038;6.280;2023-08-24T05:51:39;12.45;;;6.63;;
25153;SDS011;47555;51.038;6.280;2023-08-24T05:54:05;13.15;;;6.88;;
25153;SDS011;47555;51.038;6.280;2023-08-24T05:56:31;9.73;;;6.20;;
25153;SDS011;47555;51.038;6.280;2023-08-24T05:58:57;8.98;;;5.63;;
25153;SDS011;47555;51.038;6.280;2023-08-24T06:01:24;12.40;;;6.63;;
25153;SDS011;47555;51.038;6.280;2023-08-24T06:03:50;12.23;;;6.78;;
25153;SDS011;47555;51.038;6.280;2023-08-24T06:06:16;12.30;;;7.25;;
25153;SDS011;47555;51.038;6.280;2023-08-24T06:08:42;11.32;;;7.10;;
25153;SDS011;47555;51.038;6.280;2023-08-24T06:11:08;12.05;;;6.93;;
25153;SDS011;47555;51.038;6.280;2023-08-24T06:13:35;11.00;;;7.32;;
25153;SDS011;47555;51.038;6.280;2023-08-24T06:16:01;9.63;;;6.38;;
25153;SDS011;47555;51.038;6.280;2023-08-24T06:18:27;13.55;;;6.80;;
25153;SDS011;47555;51.038;6.280;2023-08-24T06:20:53;11.40;;;7.15;;
25153;SDS011;47555;51.038;6.280;2023-08-24T06:23:19;9.48;;;6.15;;
25153;SDS011;47555;51.038;6.280;2023-08-24T06:25:46;11.55;;;6.53;;
25153;SDS011;47555;51.038;6.280;2023-08-24T06:28:13;10.27;;;5.90;;
25153;SDS011;47555;51.038;6.280;2023-08-24T06:30:39;8.70;;;6.15;;
25153;SDS011;47555;51.038;6.280;2023-08-24T06:33:06;9.52;;;5.82;;
25153;SDS011;47555;51.038;6.280;2023-08-24T06:35:35;7.50;;;6.07;;
25153;SDS011;47555;51.038;6.280;2023-08-24T06:38:01;8.15;;;5.50;;
25153;SDS011;47555;51.038;6.280;2023-08-24T06:40:28;8.18;;;5.57;;
25153;SDS011;47555;51.038;6.280;2023-08-24T06:42:54;10.07;;;5.72;;
25153;SDS011;47555;51.038;6.280;2023-08-24T06:45:20;12.57;;;6.05;;
25153;SDS011;47555;51.038;6.280;2023-08-24T06:47:46;9.35;;;5.45;;
25153;SDS011;47555;51.038;6.280;2023-08-24T06:50:12;7.90;;;5.70;;
25153;SDS011;47555;51.038;6.280;2023-08-24T06:52:38;8.15;;;5.45;;
25153;SDS011;47555;51.038;6.280;2023-08-24T06:55:04;7.75;;;5.25;;
25153;SDS011;47555;51.038;6.280;2023-08-24T06:57:30;9.18;;;4.90;;
25153;SDS011;47555;51.038;6.280;2023-08-24T06:59:56;7.35;;;5.05;;
25153;SDS011;47555;51.038;6.280;2023-08-24T07:02:22;9.43;;;5.63;;
25153;SDS011;47555;51.038;6.280;2023-08-24T07:04:48;7.20;;;5.22;;
25153;SDS011;47555;51.038;6.280;2023-08-24T07:07:14;8.48;;;5.28;;
25153;SDS011;47555;51.038;6.280;2023-08-24T07:09:40;9.02;;;5.18;;
25153;SDS011;47555;51.038;6.280;2023-08-24T07:12:06;8.73;;;5.18;;
25153;SDS011;47555;51.038;6.280;2023-08-24T07:14:35;9.70;;;5.18;;
25153;SDS011;47555;51.038;6.280;2023-08-24T07:17:01;8.70;;;4.93;;
25153;SDS011;47555;51.038;6.280;2023-08-24T07:19:27;7.75;;;4.43;;
25153;SDS011;47555;51.038;6.280;2023-08-24T07:21:52;10.50;;;4.82;;
25153;SDS011;47555;51.038;6.280;2023-08-24T07:24:18;5.45;;;4.72;;
25153;SDS011;47555;51.038;6.280;2023-08-24T07:26:48;6.57;;;4.45;;
25153;SDS011;47555;51.038;6.280;2023-08-24T07:29:14;10.85;;;4.90;;
25153;SDS011;47555;51.038;6.280;2023-08-24T07:31:40;5.43;;;4.20;;
25153;SDS011;47555;51.038;6.280;2023-08-24T07:34:06;6.00;;;4.20;;
25153;SDS011;47555;51.038;6.280;2023-08-24T07:36:32;6.88;;;4.22;;
25153;SDS011;47555;51.038;6.280;2023-08-24T07:38:58;5.63;;;4.40;;
25153;SDS011;47555;51.038;6.280;2023-08-24T07:41:24;7.53;;;4.07;;
25153;SDS011;47555;51.038;6.280;2023-08-24T07:43:50;5.60;;;4.03;;
25153;SDS011;47555;51.038;6.280;2023-08-24T07:46:16;5.93;;;3.90;;
25153;SDS011;47555;51.038;6.280;2023-08-24T07:48:42;7.47;;;3.85;;
25153;SDS011;47555;51.038;6.280;2023-08-24T07:51:08;6.13;;;3.80;;
25153;SDS011;47555;51.038;6.280;2023-08-24T07:53:34;5.30;;;3.85;;
25153;SDS011;47555;51.038;6.280;2023-08-24T07:56:00;5.95;;;3.70;;
25153;SDS011;47555;51.038;6.280;2023-08-24T07:58:27;7.55;;;4.38;;
25153;SDS011;47555;51.038;6.280;2023-08-24T08:00:53;7.60;;;4.38;;
25153;SDS011;47555;51.038;6.280;2023-08-24T08:03:19;5.95;;;4.10;;
25153;SDS011;47555;51.038;6.280;2023-08-24T08:05:46;10.32;;;4.63;;
25153;SDS011;47555;51.038;6.280;2023-08-24T08:08:15;9.10;;;4.70;;
25153;SDS011;47555;51.038;6.280;2023-08-24T08:10:41;7.47;;;4.45;;
25153;SDS011;47555;51.038;6.280;2023-08-24T08:13:08;5.30;;;4.18;;
25153;SDS011;47555;51.038;6.280;2023-08-24T08:15:36;7.30;;;4.18;;
25153;SDS011;47555;51.038;6.280;2023-08-24T08:18:03;7.60;;;4.30;;
25153;SDS011;47555;51.038;6.280;2023-08-24T08:20:31;6.55;;;4.18;;
25153;SDS011;47555;51.038;6.280;2023-08-24T08:22:56;6.47;;;4.38;;
25153;SDS011;47555;51.038;6.280;2023-08-24T08:25:22;7.40;;;4.43;;
25153;SDS011;47555;51.038;6.280;2023-08-24T08:27:48;5.55;;;4.30;;
25153;SDS011;47555;51.038;6.280;2023-08-24T08:30:14;6.47;;;4.55;;
25153;SDS011;47555;51.038;6.280;2023-08-24T08:32:41;8.07;;;4.10;;
25153;SDS011;47555;51.038;6.280;2023-08-24T08:35:07;8.90;;;4.47;;
25153;SDS011;47555;51.038;6.280;2023-08-24T08:37:33;6.95;;;4.90;;
25153;SDS011;47555;51.038;6.280;2023-08-24T08:40:01;7.45;;;4.63;;
25153;SDS011;47555;51.038;6.280;2023-08-24T08:42:30;6.07;;;4.38;;
25153;SDS011;47555;51.038;6.280;2023-08-24T08:44:56;5.63;;;4.03;;
25153;SDS011;47555;51.038;6.280;2023-08-24T08:47:23;5.28;;;3.65;;
25153;SDS011;47555;51.038;6.280;2023-08-24T08:49:49;5.47;;;4.00;;
25153;SDS011;47555;51.038;6.280;2023-08-24T08:52:16;5.25;;;4.13;;
25153;SDS011;47555;51.038;6.280;2023-08-24T08:54:42;6.07;;;3.90;;
25153;SDS011;47555;51.038;6.280;2023-08-24T08:57:08;6.32;;;4.22;;
25153;SDS011;47555;51.038;6.280;2023-08-24T08:59:34;6.65;;;4.10;;
25153;SDS011;47555;51.038;6.280;2023-08-24T09:02:01;6.85;;;4.10;;
25153;SDS011;47555;51.038;6.280;2023-08-24T09:04:27;7.63;;;4.22;;
25153;SDS011;47555;51.038;6.280;2023-08-24T09:06:55;6.82;;;4.20;;
25153;SDS011;47555;51.038;6.280;2023-08-24T09:09:21;6.60;;;4.13;;
25153;SDS011;47555;51.038;6.280;2023-08-24T09:11:48;7.15;;;3.78;;
25153;SDS011;47555;51.038;6.280;2023-08-24T09:14:14;6.00;;;4.10;;
25153;SDS011;47555;51.038;6.280;2023-08-24T09:16:40;6.32;;;4.07;;
25153;SDS011;47555;51.038;6.280;2023-08-24T09:19:10;4.90;;;3.72;;
25153;SDS011;47555;51.038;6.280;2023-08-24T09:21:36;6.78;;;4.20;;
25153;SDS011;47555;51.038;6.280;2023-08-24T09:24:03;6.63;;;4.55;;
25153;SDS011;47555;51.038;6.280;2023-08-24T09:28:55;7.85;;;4.72;;
25153;SDS011;47555;51.038;6.280;2023-08-24T09:31:22;5.22;;;3.97;;
25153;SDS011;47555;51.038;6.280;2023-08-24T09:33:48;7.88;;;4.30;;
25153;SDS011;47555;51.038;6.280;2023-08-24T09:36:14;6.28;;;3.90;;
25153;SDS011;47555;51.038;6.280;2023-08-24T09:38:47;6.72;;;3.90;;
25153;SDS011;47555;51.038;6.280;2023-08-24T09:41:14;8.00;;;4.05;;
25153;SDS011;47555;51.038;6.280;2023-08-24T09:43:40;7.03;;;3.88;;
25153;SDS011;47555;51.038;6.280;2023-08-24T09:46:06;4.55;;;3.70;;
25153;SDS011;47555;51.038;6.280;2023-08-24T09:48:33;6.70;;;4.00;;
25153;SDS011;47555;51.038;6.280;2023-08-24T09:50:59;6.05;;;3.65;;
25153;SDS011;47555;51.038;6.280;2023-08-24T09:53:26;6.20;;;3.78;;
25153;SDS011;47555;51.038;6.280;2023-08-24T09:55:55;8.70;;;3.58;;
25153;SDS011;47555;51.038;6.280;2023-08-24T09:58:24;7.47;;;3.80;;
25153;SDS011;47555;51.038;6.280;2023-08-24T10:00:50;4.85;;;3.40;;
25153;SDS011;47555;51.038;6.280;2023-08-24T10:03:18;4.47;;;3.63;;
25153;SDS011;47555;51.038;6.280;2023-08-24T10:05:46;6.55;;;3.90;;
25153;SDS011;47555;51.038;6.280;2023-08-24T10:08:12;5.10;;;3.55;;
25153;SDS011;47555;51.038;6.280;2023-08-24T10:10:40;6.40;;;4.03;;
25153;SDS011;47555;51.038;6.280;2023-08-24T10:15:51;4.45;;;3.40;;
25153;SDS011;47555;51.038;6.280;2023-08-24T10:18:18;6.50;;;4.15;;
25153;SDS011;47555;51.038;6.280;2023-08-24T10:20:44;6.40;;;3.55;;
25153;SDS011;47555;51.038;6.280;2023-08-24T10:23:11;7.93;;;3.92;;
25153;SDS011;47555;51.038;6.280;2023-08-24T10:25:38;5.75;;;3.40;;
25153;SDS011;47555;51.038;6.280;2023-08-24T10:28:07;3.53;;;3.20;;
25153;SDS011;47555;51.038;6.280;2023-08-24T10:30:34;5.00;;;3.45;;
25153;SDS011;47555;51.038;6.280;2023-08-24T10:33:01;5.07;;;3.58;;
25153;SDS011;47555;51.038;6.280;2023-08-24T10:35:27;6.20;;;4.00;;
25153;SDS011;47555;51.038;6.280;2023-08-24T10:37:54;7.55;;;3.88;;
25153;SDS011;47555;51.038;6.280;2023-08-24T10:40:37;6.88;;;3.40;;
25153;SDS011;47555;51.038;6.280;2023-08-24T10:43:08;4.80;;;3.15;;
25153;SDS011;47555;51.038;6.280;2023-08-24T10:45:53;4.20;;;3.35;;
25153;SDS011;47555;51.038;6.280;2023-08-24T10:48:23;4.97;;;3.40;;
25153;SDS011;47555;51.038;6.280;2023-08-24T10:56:18;5.55;;;3.10;;
25153;SDS011;47555;51.038;6.280;2023-08-24T10:58:44;7.05;;;3.45;;
25153;SDS011;47555;51.038;6.280;2023-08-24T11:01:19;6.28;;;3.35;;
25153;SDS011;47555;51.038;6.280;2023-08-24T11:03:54;3.55;;;3.25;;
25153;SDS011;47555;51.038;6.280;2023-08-24T11:06:21;4.47;;;3.35;;
25153;SDS011;47555;51.038;6.280;2023-08-24T11:08:48;3.88;;;3.40;;
25153;SDS011;47555;51.038;6.280;2023-08-24T11:11:20;5.70;;;3.60;;
25153;SDS011;47555;51.038;6.280;2023-08-24T11:16:38;5.03;;;3.25;;
25153;SDS011;47555;51.038;6.280;2023-08-24T11:19:06;3.88;;;3.20;;
25153;SDS011;47555;51.038;6.280;2023-08-24T11:21:33;5.00;;;3.63;;
25153;SDS011;47555;51.038;6.280;2023-08-24T11:24:00;4.10;;;3.20;;
25153;SDS011;47555;51.038;6.280;2023-08-24T11:26:26;5.72;;;3.50;;
25153;SDS011;47555;51.038;6.280;2023-08-24T11:28:55;7.65;;;3.22;;
25153;SDS011;47555;51.038;6.280;2023-08-24T11:31:22;5.13;;;2.70;;
25153;SDS011;47555;51.038;6.280;2023-08-24T11:33:53;5.82;;;3.00;;
25153;SDS011;47555;51.038;6.280;2023-08-24T11:36:20;5.07;;;3.08;;
25153;SDS011;47555;51.038;6.280;2023-08-24T11:38:48;7.20;;;3.22;;
25153;SDS011;47555;51.038;6.280;2023-08-24T11:41:14;6.53;;;3.45;;
25153;SDS011;47555;51.038;6.280;2023-08-24T11:43:41;6.40;;;3.50;;
25153;SDS011;47555;51.038;6.280;2023-08-24T11:46:08;7.55;;;4.07;;
25153;SDS011;47555;51.038;6.280;2023-08-24T11:48:34;6.18;;;3.40;;
25153;SDS011;47555;51.038;6.280;2023-08-24T11:51:02;8.63;;;4.00;;
25153;SDS011;47555;51.038;6.280;2023-08-24T11:53:28;11.07;;;5.00;;
25153;SDS011;47555;51.038;6.280;2023-08-24T11:55:57;11.38;;;4.78;;
25153;SDS011;47555;51.038;6.280;2023-08-24T11:58:23;11.40;;;5.57;;
25153;SDS011;47555;51.038;6.280;2023-08-24T12:00:49;8.95;;;5.10;;
25153;SDS011;47555;51.038;6.280;2023-08-24T12:03:15;7.82;;;4.68;;
25153;SDS011;47555;51.038;6.280;2023-08-24T12:05:42;8.57;;;4.60;;
25153;SDS011;47555;51.038;6.280;2023-08-24T12:08:08;7.85;;;4.88;;
25153;SDS011;47555;51.038;6.280;2023-08-24T12:10:41;7.13;;;4.63;;
25153;SDS011;47555;51.038;6.280;2023-08-24T12:13:07;7.65;;;5.50;;
25153;SDS011;47555;51.038;6.280;2023-08-24T12:15:34;8.55;;;5.18;;
25153;SDS011;47555;51.038;6.280;2023-08-24T12:18:13;5.47;;;4.57;;
25153;SDS011;47555;51.038;6.280;2023-08-24T12:20:40;10.35;;;5.47;;
25153;SDS011;47555;51.038;6.280;2023-08-24T12:23:06;11.30;;;6.18;;
25153;SDS011;47555;51.038;6.280;2023-08-24T12:25:42;9.07;;;5.70;;
25153;SDS011;47555;51.038;6.280;2023-08-24T12:30:51;7.20;;;5.25;;
25153;SDS011;47555;51.038;6.280;2023-08-24T12:33:24;9.02;;;5.53;;
25153;SDS011;47555;51.038;6.280;2023-08-24T12:35:50;6.68;;;5.03;;
25153;SDS011;47555;51.038;6.280;2023-08-24T12:38:17;6.43;;;4.68;;
25153;SDS011;47555;51.038;6.280;2023-08-24T12:40:43;5.40;;;4.30;;
25153;SDS011;47555;51.038;6.280;2023-08-24T12:43:08;7.20;;;4.22;;
25153;SDS011;47555;51.038;6.280;2023-08-24T12:45:34;8.63;;;4.45;;
25153;SDS011;47555;51.038;6.280;2023-08-24T12:48:03;7.40;;;4.43;;
25153;SDS011;47555;51.038;6.280;2023-08-24T12:50:29;5.53;;;4.05;;
25153;SDS011;47555;51.038;6.280;2023-08-24T12:52:55;7.22;;;4.10;;
25153;SDS011;47555;51.038;6.280;2023-08-24T12:55:25;8.35;;;4.28;;
25153;SDS011;47555;51.038;6.280;2023-08-24T12:57:51;7.93;;;4.63;;
25153;SDS011;47555;51.038;6.280;2023-08-24T13:00:18;12.30;;;5.90;;
25153;SDS011;47555;51.038;6.280;2023-08-24T13:02:44;9.40;;;4.97;;
25153;SDS011;47555;51.038;6.280;2023-08-24T13:05:10;5.53;;;4.40;;
25153;SDS011;47555;51.038;6.280;2023-08-24T13:07:36;5.88;;;4.45;;
25153;SDS011;47555;51.038;6.280;2023-08-24T13:10:02;7.95;;;4.80;;
25153;SDS011;47555;51.038;6.280;2023-08-24T13:12:29;8.13;;;4.97;;
25153;SDS011;47555;51.038;6.280;2023-08-24T13:14:55;7.40;;;4.82;;
25153;SDS011;47555;51.038;6.280;2023-08-24T13:17:21;6.00;;;4.28;;
25153;SDS011;47555;51.038;6.280;2023-08-24T13:19:47;9.85;;;5.20;;
25153;SDS011;47555;51.038;6.280;2023-08-24T13:22:16;7.00;;;4.68;;
25153;SDS011;47555;51.038;6.280;2023-08-24T13:24:42;7.90;;;5.03;;
25153;SDS011;47555;51.038;6.280;2023-08-24T13:27:09;7.97;;;4.10;;
25153;SDS011;47555;51.038;6.280;2023-08-24T13:29:38;6.97;;;4.72;;
25153;SDS011;47555;51.038;6.280;2023-08-24T13:32:04;6.32;;;4.40;;
25153;SDS011;47555;51.038;6.280;2023-08-24T13:34:30;8.93;;;4.93;;
25153;SDS011;47555;51.038;6.280;2023-08-24T13:36:56;9.85;;;5.47;;
25153;SDS011;47555;51.038;6.280;2023-08-24T13:39:23;5.47;;;4.15;;
25153;SDS011;47555;51.038;6.280;2023-08-24T13:41:49;8.38;;;4.43;;
25153;SDS011;47555;51.038;6.280;2023-08-24T13:44:15;6.53;;;3.90;;
25153;SDS011;47555;51.038;6.280;2023-08-24T13:46:44;5.38;;;3.70;;
25153;SDS011;47555;51.038;6.280;2023-08-24T13:49:10;4.82;;;3.67;;
25153;SDS011;47555;51.038;6.280;2023-08-24T13:51:36;9.73;;;4.55;;
25153;SDS011;47555;51.038;6.280;2023-08-24T13:54:02;7.28;;;4.32;;
25153;SDS011;47555;51.038;6.280;2023-08-24T13:56:28;7.70;;;3.90;;
25153;SDS011;47555;51.038;6.280;2023-08-24T13:58:54;5.32;;;4.07;;
25153;SDS011;47555;51.038;6.280;2023-08-24T14:01:20;5.32;;;4.28;;
25153;SDS011;47555;51.038;6.280;2023-08-24T14:03:46;7.13;;;4.20;;
25153;SDS011;47555;51.038;6.280;2023-08-24T14:06:12;6.28;;;4.35;;
25153;SDS011;47555;51.038;6.280;2023-08-24T14:08:38;10.15;;;5.05;;
25153;SDS011;47555;51.038;6.280;2023-08-24T14:11:04;5.90;;;3.88;;
25153;SDS011;47555;51.038;6.280;2023-08-24T14:13:30;5.43;;;4.13;;
25153;SDS011;47555;51.038;6.280;2023-08-24T14:15:56;5.72;;;4.10;;
25153;SDS011;47555;51.038;6.280;2023-08-24T14:18:22;5.70;;;3.88;;
25153;SDS011;47555;51.038;6.280;2023-08-24T14:20:48;8.35;;;4.07;;
25153;SDS011;47555;51.038;6.280;2023-08-24T14:23:14;7.32;;;4.03;;
25153;SDS011;47555;51.038;6.280;2023-08-24T14:25:40;6.65;;;3.55;;
25153;SDS011;47555;51.038;6.280;2023-08-24T14:28:09;5.68;;;3.70;;
25153;SDS011;47555;51.038;6.280;2023-08-24T14:30:35;8.52;;;4.15;;
25153;SDS011;47555;51.038;6.280;2023-08-24T14:33:01;5.55;;;3.83;;
25153;SDS011;47555;51.038;6.280;2023-08-24T14:35:27;5.10;;;3.47;;
25153;SDS011;47555;51.038;6.280;2023-08-24T14:37:53;8.50;;;4.20;;
25153;SDS011;47555;51.038;6.280;2023-08-24T14:40:19;5.85;;;3.42;;
25153;SDS011;47555;51.038;6.280;2023-08-24T14:42:45;6.55;;;3.35;;
25153;SDS011;47555;51.038;6.280;2023-08-24T14:45:11;4.97;;;3.40;;
25153;SDS011;47555;51.038;6.280;2023-08-24T14:47:37;6.13;;;3.30;;
25153;SDS011;47555;51.038;6.280;2023-08-24T14:50:04;6.22;;;3.00;;
25153;SDS011;47555;51.038;6.280;2023-08-24T14:52:30;6.53;;;3.00;;
25153;SDS011;47555;51.038;6.280;2023-08-24T14:54:56;4.32;;;3.00;;
25153;SDS011;47555;51.038;6.280;2023-08-24T14:57:22;5.80;;;2.65;;
25153;SDS011;47555;51.038;6.280;2023-08-24T14:59:48;5.15;;;2.80;;
25153;SDS011;47555;51.038;6.280;2023-08-24T15:02:14;5.72;;;2.95;;
25153;SDS011;47555;51.038;6.280;2023-08-24T15:04:41;3.97;;;2.50;;